sensor_id;sensor_type;location;lat;lon;timestamp;temperature;humidity
68609;SHT31;55581;46.718;7.690;2023-02-15T00:01:52;2.60;78.14
68609;SHT31;55581;46.718;7.690;2023-02-15T00:04:20;2.73;78.51
68609;SHT31;55581;46.718;7.690;2023-02-15T00:06:51;2.56;76.73
68609;SHT31;55581;46.718;7.690;2023-02-15T00:09:16;2.57;80.14
68609;SHT31;55581;46.718;7.690;2023-02-15T00:11:42;2.58;80.41
68609;SHT31;55581;46.718;7.690;2023-02-15T00:14:16;2.41;78.30
68609;SHT31;55581;46.718;7.690;2023-02-15T00:16:48;2.23;77.29
68609;SHT31;55581;46.718;7.690;2023-02-15T00:19:16;2.13;77.08
68609;SHT31;55581;46.718;7.690;2023-02-15T00:21:42;2.03;76.55
68609;SHT31;55581;46.718;7.690;2023-02-15T00:24:09;1.88;77.39
68609;SHT31;55581;46.718;7.690;2023-02-15T00:26:38;1.84;77.35
68609;SHT31;55581;46.718;7.690;2023-02-15T00:29:04;1.85;76.69
68609;SHT31;55581;46.718;7.690;2023-02-15T00:31:32;1.82;76.95
68609;SHT31;55581;46.718;7.690;2023-02-15T00:34:06;1.68;77.21
68609;SHT31;55581;46.718;7.690;2023-02-15T00:36:34;1.85;77.48
68609;SHT31;55581;46.718;7.690;2023-02-15T00:39:00;1.91;76.76
68609;SHT31;55581;46.718;7.690;2023-02-15T00:41:35;1.89;76.59
68609;SHT31;55581;46.718;7.690;2023-02-15T00:44:03;1.94;77.07
68609;SHT31;55581;46.718;7.690;2023-02-15T00:46:28;2.01;77.36
68609;SHT31;55581;46.718;7.690;2023-02-15T00:48:54;2.02;77.38
68609;SHT31;55581;46.718;7.690;2023-02-15T00:51:22;2.02;78.33
68609;SHT31;55581;46.718;7.690;2023-02-15T00:56:24;2.05;77.42
68609;SHT31;55581;46.718;7.690;2023-02-15T00:58:50;2.03;77.36
68609;SHT31;55581;46.718;7.690;2023-02-15T01:01:17;2.08;78.39
68609;SHT31;55581;46.718;7.690;2023-02-15T01:03:43;2.08;78.45
68609;SHT31;55581;46.718;7.690;2023-02-15T01:06:15;2.06;76.51
68609;SHT31;55581;46.718;7.690;2023-02-15T01:08:41;2.01;76.93
68609;SHT31;55581;46.718;7.690;2023-02-15T01:11:19;1.98;76.66
68609;SHT31;55581;46.718;7.690;2023-02-15T01:13:53;1.97;78.67
68609;SHT31;55581;46.718;7.690;2023-02-15T01:16:19;1.91;78.33
68609;SHT31;55581;46.718;7.690;2023-02-15T01:18:45;1.92;77.93
68609;SHT31;55581;46.718;7.690;2023-02-15T01:21:18;1.82;78.92
68609;SHT31;55581;46.718;7.690;2023-02-15T01:23:45;1.75;78.00
68609;SHT31;55581;46.718;7.690;2023-02-15T01:26:13;1.64;78.30
68609;SHT31;55581;46.718;7.690;2023-02-15T01:28:43;1.57;78.28
68609;SHT31;55581;46.718;7.690;2023-02-15T01:31:17;1.64;79.62
68609;SHT31;55581;46.718;7.690;2023-02-15T01:33:42;1.68;78.92
68609;SHT31;55581;46.718;7.690;2023-02-15T01:36:10;1.73;77.86
68609;SHT31;55581;46.718;7.690;2023-02-15T01:38:36;1.70;77.53
68609;SHT31;55581;46.718;7.690;2023-02-15T01:41:02;1.75;78.80
68609;SHT31;55581;46.718;7.690;2023-02-15T01:43:50;1.73;79.06
68609;SHT31;55581;46.718;7.690;2023-02-15T01:46:22;1.65;78.56
68609;SHT31;55581;46.718;7.690;2023-02-15T01:48:54;1.56;78.95
68609;SHT31;55581;46.718;7.690;2023-02-15T01:51:23;1.48;78.98
68609;SHT31;55581;46.718;7.690;2023-02-15T01:53:59;1.53;83.04
68609;SHT31;55581;46.718;7.690;2023-02-15T01:56:30;1.50;82.61
68609;SHT31;55581;46.718;7.690;2023-02-15T01:58:59;1.48;82.45
68609;SHT31;55581;46.718;7.690;2023-02-15T02:01:33;1.50;83.47
68609;SHT31;55581;46.718;7.690;2023-02-15T02:06:32;1.43;82.73
68609;SHT31;55581;46.718;7.690;2023-02-15T02:08:58;1.50;82.74
68609;SHT31;55581;46.718;7.690;2023-02-15T02:11:24;1.42;82.99
68609;SHT31;55581;46.718;7.690;2023-02-15T02:13:53;1.39;82.81
68609;SHT31;55581;46.718;7.690;2023-02-15T02:27:41;1.22;78.91
68609;SHT31;55581;46.718;7.690;2023-02-15T02:30:30;1.29;80.38
68609;SHT31;55581;46.718;7.690;2023-02-15T02:44:23;1.39;80.78
68609;SHT31;55581;46.718;7.690;2023-02-15T02:49:58;1.47;81.45
68609;SHT31;55581;46.718;7.690;2023-02-15T02:52:43;1.46;83.00
68609;SHT31;55581;46.718;7.690;2023-02-15T02:55:29;1.46;83.52
68609;SHT31;55581;46.718;7.690;2023-02-15T03:00:54;1.50;81.72
68609;SHT31;55581;46.718;7.690;2023-02-15T03:03:28;1.53;80.82
68609;SHT31;55581;46.718;7.690;2023-02-15T03:05:58;1.56;81.12
68609;SHT31;55581;46.718;7.690;2023-02-15T03:08:32;1.53;81.54
68609;SHT31;55581;46.718;7.690;2023-02-15T03:11:04;1.56;82.09
68609;SHT31;55581;46.718;7.690;2023-02-15T03:13:30;1.53;81.54
68609;SHT31;55581;46.718;7.690;2023-02-15T03:15:59;1.53;81.30
68609;SHT31;55581;46.718;7.690;2023-02-15T03:18:50;1.57;82.29
68609;SHT31;55581;46.718;7.690;2023-02-15T03:21:47;1.56;81.40
68609;SHT31;55581;46.718;7.690;2023-02-15T03:24:19;1.61;82.49
68609;SHT31;55581;46.718;7.690;2023-02-15T03:26:49;1.58;81.13
68609;SHT31;55581;46.718;7.690;2023-02-15T03:29:18;1.61;82.33
68609;SHT31;55581;46.718;7.690;2023-02-15T03:31:46;1.60;81.66
68609;SHT31;55581;46.718;7.690;2023-02-15T03:34:17;1.61;80.66
68609;SHT31;55581;46.718;7.690;2023-02-15T03:39:42;1.67;80.36
68609;SHT31;55581;46.718;7.690;2023-02-15T03:42:17;1.71;80.92
68609;SHT31;55581;46.718;7.690;2023-02-15T03:45:08;1.71;80.60
68609;SHT31;55581;46.718;7.690;2023-02-15T03:47:41;1.78;79.76
68609;SHT31;55581;46.718;7.690;2023-02-15T03:50:21;1.79;80.69
68609;SHT31;55581;46.718;7.690;2023-02-15T03:53:09;1.78;78.76
68609;SHT31;55581;46.718;7.690;2023-02-15T03:55:36;1.75;77.75
68609;SHT31;55581;46.718;7.690;2023-02-15T03:58:04;1.70;79.02
68609;SHT31;55581;46.718;7.690;2023-02-15T04:00:54;1.71;80.93
68609;SHT31;55581;46.718;7.690;2023-02-15T04:03:43;1.84;79.15
68609;SHT31;55581;46.718;7.690;2023-02-15T04:06:13;1.92;78.27
68609;SHT31;55581;46.718;7.690;2023-02-15T04:08:39;1.86;77.22
68609;SHT31;55581;46.718;7.690;2023-02-15T04:11:23;1.85;77.92
68609;SHT31;55581;46.718;7.690;2023-02-15T04:13:50;1.84;78.56
68609;SHT31;55581;46.718;7.690;2023-02-15T04:16:22;1.85;78.78
68609;SHT31;55581;46.718;7.690;2023-02-15T04:18:48;1.91;79.37
68609;SHT31;55581;46.718;7.690;2023-02-15T04:21:32;2.02;80.76
68609;SHT31;55581;46.718;7.690;2023-02-15T04:24:17;2.06;80.85
68609;SHT31;55581;46.718;7.690;2023-02-15T04:27:02;2.02;80.57
68609;SHT31;55581;46.718;7.690;2023-02-15T04:29:28;2.09;81.46
68609;SHT31;55581;46.718;7.690;2023-02-15T04:31:55;2.22;82.00
68609;SHT31;55581;46.718;7.690;2023-02-15T04:34:22;2.26;82.62
68609;SHT31;55581;46.718;7.690;2023-02-15T04:36:49;2.20;82.51
68609;SHT31;55581;46.718;7.690;2023-02-15T04:39:16;2.13;83.14
68609;SHT31;55581;46.718;7.690;2023-02-15T04:41:42;2.03;83.85
68609;SHT31;55581;46.718;7.690;2023-02-15T04:44:08;2.02;83.27
68609;SHT31;55581;46.718;7.690;2023-02-15T04:46:34;1.95;83.38
68609;SHT31;55581;46.718;7.690;2023-02-15T04:49:00;1.82;84.07
68609;SHT31;55581;46.718;7.690;2023-02-15T04:51:26;1.74;83.99
68609;SHT31;55581;46.718;7.690;2023-02-15T04:53:51;1.70;84.68
68609;SHT31;55581;46.718;7.690;2023-02-15T04:56:20;1.74;85.13
68609;SHT31;55581;46.718;7.690;2023-02-15T04:58:46;1.71;84.85
68609;SHT31;55581;46.718;7.690;2023-02-15T05:01:12;1.64;85.21
68609;SHT31;55581;46.718;7.690;2023-02-15T05:03:37;1.70;84.55
68609;SHT31;55581;46.718;7.690;2023-02-15T05:06:04;1.67;84.24
68609;SHT31;55581;46.718;7.690;2023-02-15T05:08:30;1.68;85.26
68609;SHT31;55581;46.718;7.690;2023-02-15T05:10:59;1.67;85.41
68609;SHT31;55581;46.718;7.690;2023-02-15T05:13:24;1.67;84.61
68609;SHT31;55581;46.718;7.690;2023-02-15T05:15:52;1.60;83.78
68609;SHT31;55581;46.718;7.690;2023-02-15T05:18:21;1.58;84.27
68609;SHT31;55581;46.718;7.690;2023-02-15T05:20:52;1.57;84.18
68609;SHT31;55581;46.718;7.690;2023-02-15T05:23:19;1.57;83.89
68609;SHT31;55581;46.718;7.690;2023-02-15T05:25:48;1.60;83.50
68609;SHT31;55581;46.718;7.690;2023-02-15T05:28:34;1.65;84.54
68609;SHT31;55581;46.718;7.690;2023-02-15T05:31:15;1.64;84.97
68609;SHT31;55581;46.718;7.690;2023-02-15T05:33:44;1.60;85.39
68609;SHT31;55581;46.718;7.690;2023-02-15T05:36:10;1.53;85.76
68609;SHT31;55581;46.718;7.690;2023-02-15T05:38:39;1.51;85.80
68609;SHT31;55581;46.718;7.690;2023-02-15T05:41:06;1.47;86.05
68609;SHT31;55581;46.718;7.690;2023-02-15T05:43:35;1.47;85.73
68609;SHT31;55581;46.718;7.690;2023-02-15T05:46:02;1.43;86.05
68609;SHT31;55581;46.718;7.690;2023-02-15T05:48:31;1.43;84.74
68609;SHT31;55581;46.718;7.690;2023-02-15T05:51:02;1.42;88.64
68609;SHT31;55581;46.718;7.690;2023-02-15T05:53:29;1.43;89.30
68609;SHT31;55581;46.718;7.690;2023-02-15T05:55:55;1.42;89.40
68609;SHT31;55581;46.718;7.690;2023-02-15T05:58:33;1.40;88.33
68609;SHT31;55581;46.718;7.690;2023-02-15T06:01:08;1.23;86.57
68609;SHT31;55581;46.718;7.690;2023-02-15T06:03:38;1.25;85.99
68609;SHT31;55581;46.718;7.690;2023-02-15T06:06:04;1.23;84.90
68609;SHT31;55581;46.718;7.690;2023-02-15T06:08:33;1.25;84.37
68609;SHT31;55581;46.718;7.690;2023-02-15T06:11:02;1.20;84.54
68609;SHT31;55581;46.718;7.690;2023-02-15T06:13:28;1.26;84.51
68609;SHT31;55581;46.718;7.690;2023-02-15T06:15:57;1.26;84.48
68609;SHT31;55581;46.718;7.690;2023-02-15T06:18:26;1.27;84.19
68609;SHT31;55581;46.718;7.690;2023-02-15T06:20:52;1.36;83.60
68609;SHT31;55581;46.718;7.690;2023-02-15T06:23:20;1.36;83.59
68609;SHT31;55581;46.718;7.690;2023-02-15T06:25:47;1.35;83.70
68609;SHT31;55581;46.718;7.690;2023-02-15T06:28:13;1.30;84.12
68609;SHT31;55581;46.718;7.690;2023-02-15T06:30:39;1.25;83.15
68609;SHT31;55581;46.718;7.690;2023-02-15T06:33:07;1.15;83.08
68609;SHT31;55581;46.718;7.690;2023-02-15T06:35:33;1.13;86.09
68609;SHT31;55581;46.718;7.690;2023-02-15T06:37:59;1.08;87.33
68609;SHT31;55581;46.718;7.690;2023-02-15T06:40:33;1.02;87.66
68609;SHT31;55581;46.718;7.690;2023-02-15T06:43:01;0.89;86.82
68609;SHT31;55581;46.718;7.690;2023-02-15T06:45:29;0.85;88.08
68609;SHT31;55581;46.718;7.690;2023-02-15T06:47:55;0.81;89.41
68609;SHT31;55581;46.718;7.690;2023-02-15T06:50:21;0.80;89.54
68609;SHT31;55581;46.718;7.690;2023-02-15T06:52:49;0.84;89.19
68609;SHT31;55581;46.718;7.690;2023-02-15T06:55:20;0.77;88.85
68609;SHT31;55581;46.718;7.690;2023-02-15T06:57:54;0.72;88.59
68609;SHT31;55581;46.718;7.690;2023-02-15T07:00:20;0.63;87.31
68609;SHT31;55581;46.718;7.690;2023-02-15T07:02:52;0.63;86.47
68609;SHT31;55581;46.718;7.690;2023-02-15T07:05:23;0.63;85.11
68609;SHT31;55581;46.718;7.690;2023-02-15T07:07:49;0.64;85.23
68609;SHT31;55581;46.718;7.690;2023-02-15T07:10:16;0.74;86.43
68609;SHT31;55581;46.718;7.690;2023-02-15T07:12:44;0.77;85.90
68609;SHT31;55581;46.718;7.690;2023-02-15T07:15:14;0.77;85.54
68609;SHT31;55581;46.718;7.690;2023-02-15T07:17:41;0.80;86.04
68609;SHT31;55581;46.718;7.690;2023-02-15T07:20:13;0.92;85.91
68609;SHT31;55581;46.718;7.690;2023-02-15T07:22:39;0.98;85.68
68609;SHT31;55581;46.718;7.690;2023-02-15T07:25:06;1.06;85.65
68609;SHT31;55581;46.718;7.690;2023-02-15T07:27:32;1.12;85.35
68609;SHT31;55581;46.718;7.690;2023-02-15T07:29:58;1.16;85.39
68609;SHT31;55581;46.718;7.690;2023-02-15T07:32:30;1.20;84.81
68609;SHT31;55581;46.718;7.690;2023-02-15T07:35:05;1.40;85.19
68609;SHT31;55581;46.718;7.690;2023-02-15T07:37:31;1.54;83.74
68609;SHT31;55581;46.718;7.690;2023-02-15T07:39:59;1.63;83.60
68609;SHT31;55581;46.718;7.690;2023-02-15T07:42:30;1.71;82.91
68609;SHT31;55581;46.718;7.690;2023-02-15T07:44:55;1.74;83.10
68609;SHT31;55581;46.718;7.690;2023-02-15T07:47:33;1.89;83.06
68609;SHT31;55581;46.718;7.690;2023-02-15T07:49:59;1.97;83.11
68609;SHT31;55581;46.718;7.690;2023-02-15T07:52:25;2.03;82.86
68609;SHT31;55581;46.718;7.690;2023-02-15T07:54:51;2.19;81.98
68609;SHT31;55581;46.718;7.690;2023-02-15T07:57:20;2.29;81.59
68609;SHT31;55581;46.718;7.690;2023-02-15T07:59:47;2.40;81.67
68609;SHT31;55581;46.718;7.690;2023-02-15T08:02:16;2.47;82.13
68609;SHT31;55581;46.718;7.690;2023-02-15T08:04:41;2.53;82.07
68609;SHT31;55581;46.718;7.690;2023-02-15T08:07:07;2.54;82.41
68609;SHT31;55581;46.718;7.690;2023-02-15T08:09:35;2.58;84.78
68609;SHT31;55581;46.718;7.690;2023-02-15T08:12:00;2.64;85.75
68609;SHT31;55581;46.718;7.690;2023-02-15T08:14:27;2.70;85.93
68609;SHT31;55581;46.718;7.690;2023-02-15T08:16:54;2.75;85.64
68609;SHT31;55581;46.718;7.690;2023-02-15T08:19:31;2.80;85.99
68609;SHT31;55581;46.718;7.690;2023-02-15T08:22:05;2.91;85.75
68609;SHT31;55581;46.718;7.690;2023-02-15T08:24:34;3.06;84.26
68609;SHT31;55581;46.718;7.690;2023-02-15T08:27:00;3.18;83.74
68609;SHT31;55581;46.718;7.690;2023-02-15T08:29:32;3.24;82.93
68609;SHT31;55581;46.718;7.690;2023-02-15T08:32:01;3.32;82.91
68609;SHT31;55581;46.718;7.690;2023-02-15T08:34:36;3.49;82.77
68609;SHT31;55581;46.718;7.690;2023-02-15T08:37:09;3.54;82.80
68609;SHT31;55581;46.718;7.690;2023-02-15T08:39:37;3.60;82.91
68609;SHT31;55581;46.718;7.690;2023-02-15T08:42:03;3.61;82.99
68609;SHT31;55581;46.718;7.690;2023-02-15T08:44:30;3.71;83.15
68609;SHT31;55581;46.718;7.690;2023-02-15T08:46:55;3.77;82.72
68609;SHT31;55581;46.718;7.690;2023-02-15T08:49:27;3.82;82.59
68609;SHT31;55581;46.718;7.690;2023-02-15T08:51:53;3.89;82.09
68609;SHT31;55581;46.718;7.690;2023-02-15T08:54:20;3.97;82.50
68609;SHT31;55581;46.718;7.690;2023-02-15T08:56:49;3.98;81.92
68609;SHT31;55581;46.718;7.690;2023-02-15T08:59:24;4.05;81.24
68609;SHT31;55581;46.718;7.690;2023-02-15T09:01:52;4.16;81.71
68609;SHT31;55581;46.718;7.690;2023-02-15T09:04:18;4.22;81.35
68609;SHT31;55581;46.718;7.690;2023-02-15T09:06:45;4.23;79.91
68609;SHT31;55581;46.718;7.690;2023-02-15T09:09:13;4.33;80.99
68609;SHT31;55581;46.718;7.690;2023-02-15T09:11:50;4.52;80.25
68609;SHT31;55581;46.718;7.690;2023-02-15T09:14:20;4.57;78.63
68609;SHT31;55581;46.718;7.690;2023-02-15T09:16:47;4.67;78.78
68609;SHT31;55581;46.718;7.690;2023-02-15T09:19:15;4.70;77.05
68609;SHT31;55581;46.718;7.690;2023-02-15T09:21:44;4.74;75.96
68609;SHT31;55581;46.718;7.690;2023-02-15T09:24:12;4.93;75.38
68609;SHT31;55581;46.718;7.690;2023-02-15T09:26:44;5.12;75.52
68609;SHT31;55581;46.718;7.690;2023-02-15T09:29:13;5.26;74.78
68609;SHT31;55581;46.718;7.690;2023-02-15T09:31:52;5.30;74.56
68609;SHT31;55581;46.718;7.690;2023-02-15T09:34:21;5.37;74.51
68609;SHT31;55581;46.718;7.690;2023-02-15T09:36:48;5.50;74.52
68609;SHT31;55581;46.718;7.690;2023-02-15T09:39:25;5.39;71.94
68609;SHT31;55581;46.718;7.690;2023-02-15T10:09:42;5.90;75.76
68609;SHT31;55581;46.718;7.690;2023-02-15T10:28:20;7.16;70.35
68609;SHT31;55581;46.718;7.690;2023-02-15T10:30:57;7.16;66.06
68609;SHT31;55581;46.718;7.690;2023-02-15T10:33:41;7.12;66.62
68609;SHT31;55581;46.718;7.690;2023-02-15T10:56:20;8.05;65.07
68609;SHT31;55581;46.718;7.690;2023-02-15T11:07:37;8.54;56.90
68609;SHT31;55581;46.718;7.690;2023-02-15T11:12:38;8.77;56.77
68609;SHT31;55581;46.718;7.690;2023-02-15T11:15:42;8.87;57.21
68609;SHT31;55581;46.718;7.690;2023-02-15T11:18:33;8.98;58.47
68609;SHT31;55581;46.718;7.690;2023-02-15T11:21:42;9.14;58.57
68609;SHT31;55581;46.718;7.690;2023-02-15T11:24:18;9.07;55.18
68609;SHT31;55581;46.718;7.690;2023-02-15T11:27:12;8.99;57.36
68609;SHT31;55581;46.718;7.690;2023-02-15T11:29:58;8.92;54.98
68609;SHT31;55581;46.718;7.690;2023-02-15T11:32:50;9.07;54.46
68609;SHT31;55581;46.718;7.690;2023-02-15T11:40:47;9.43;62.35
68609;SHT31;55581;46.718;7.690;2023-02-15T11:45:59;9.71;61.55
68609;SHT31;55581;46.718;7.690;2023-02-15T11:48:31;9.64;62.75
68609;SHT31;55581;46.718;7.690;2023-02-15T11:50:59;9.43;61.43
68609;SHT31;55581;46.718;7.690;2023-02-15T11:53:36;9.53;63.05
68609;SHT31;55581;46.718;7.690;2023-02-15T11:58:59;9.56;60.93
68609;SHT31;55581;46.718;7.690;2023-02-15T12:01:37;9.69;60.63
68609;SHT31;55581;46.718;7.690;2023-02-15T12:06:34;10.03;56.96
68609;SHT31;55581;46.718;7.690;2023-02-15T12:12:32;10.35;54.46
68609;SHT31;55581;46.718;7.690;2023-02-15T12:15:00;10.45;52.63
68609;SHT31;55581;46.718;7.690;2023-02-15T12:17:53;10.53;51.90
68609;SHT31;55581;46.718;7.690;2023-02-15T12:20:28;10.75;51.48
68609;SHT31;55581;46.718;7.690;2023-02-15T12:23:08;10.85;54.70
68609;SHT31;55581;46.718;7.690;2023-02-15T12:25:54;10.97;55.24
68609;SHT31;55581;46.718;7.690;2023-02-15T12:31:07;11.05;56.28
68609;SHT31;55581;46.718;7.690;2023-02-15T12:33:36;11.14;54.25
68609;SHT31;55581;46.718;7.690;2023-02-15T12:36:18;11.33;52.25
68609;SHT31;55581;46.718;7.690;2023-02-15T12:41:33;11.22;53.28
68609;SHT31;55581;46.718;7.690;2023-02-15T12:46:35;11.39;53.96
68609;SHT31;55581;46.718;7.690;2023-02-15T12:51:57;11.52;53.84
68609;SHT31;55581;46.718;7.690;2023-02-15T12:57:13;11.56;53.83
68609;SHT31;55581;46.718;7.690;2023-02-15T12:59:57;11.69;53.07
68609;SHT31;55581;46.718;7.690;2023-02-15T13:02:35;11.71;53.25
68609;SHT31;55581;46.718;7.690;2023-02-15T13:05:22;11.80;53.57
68609;SHT31;55581;46.718;7.690;2023-02-15T13:08:08;11.88;52.66
68609;SHT31;55581;46.718;7.690;2023-02-15T13:10:37;11.88;51.57
68609;SHT31;55581;46.718;7.690;2023-02-15T13:13:24;11.78;52.44
68609;SHT31;55581;46.718;7.690;2023-02-15T13:15:55;11.67;52.35
68609;SHT31;55581;46.718;7.690;2023-02-15T13:18:43;11.87;51.10
68609;SHT31;55581;46.718;7.690;2023-02-15T13:21:13;11.99;48.75
68609;SHT31;55581;46.718;7.690;2023-02-15T13:23:46;11.98;49.18
68609;SHT31;55581;46.718;7.690;2023-02-15T13:26:20;11.93;49.18
68609;SHT31;55581;46.718;7.690;2023-02-15T13:28:52;12.15;47.34
68609;SHT31;55581;46.718;7.690;2023-02-15T13:31:22;12.06;47.39
68609;SHT31;55581;46.718;7.690;2023-02-15T13:34:23;12.06;47.30
68609;SHT31;55581;46.718;7.690;2023-02-15T13:37:16;12.14;46.41
68609;SHT31;55581;46.718;7.690;2023-02-15T13:40:11;12.20;47.29
68609;SHT31;55581;46.718;7.690;2023-02-15T13:54:08;12.39;47.68
68609;SHT31;55581;46.718;7.690;2023-02-15T14:19:44;12.98;46.75
68609;SHT31;55581;46.718;7.690;2023-02-15T14:30:37;12.84;49.05
68609;SHT31;55581;46.718;7.690;2023-02-15T14:33:32;12.64;48.94
68609;SHT31;55581;46.718;7.690;2023-02-15T14:35:59;12.56;48.37
68609;SHT31;55581;46.718;7.690;2023-02-15T14:41:31;12.64;48.25
68609;SHT31;55581;46.718;7.690;2023-02-15T14:44:18;12.64;48.52
68609;SHT31;55581;46.718;7.690;2023-02-15T14:46:52;12.50;49.94
68609;SHT31;55581;46.718;7.690;2023-02-15T14:49:32;12.60;49.34
68609;SHT31;55581;46.718;7.690;2023-02-15T14:52:00;12.57;49.33
68609;SHT31;55581;46.718;7.690;2023-02-15T15:02:18;12.64;48.77
68609;SHT31;55581;46.718;7.690;2023-02-15T15:05:00;12.67;49.58
68609;SHT31;55581;46.718;7.690;2023-02-15T15:12:45;12.56;48.70
68609;SHT31;55581;46.718;7.690;2023-02-15T15:15:51;12.55;49.20
68609;SHT31;55581;46.718;7.690;2023-02-15T15:21:07;12.43;49.09
68609;SHT31;55581;46.718;7.690;2023-02-15T15:23:44;12.45;50.14
68609;SHT31;55581;46.718;7.690;2023-02-15T15:26:24;12.26;50.50
68609;SHT31;55581;46.718;7.690;2023-02-15T15:31:27;12.10;48.27
68609;SHT31;55581;46.718;7.690;2023-02-15T15:40:11;11.62;49.60
68609;SHT31;55581;46.718;7.690;2023-02-15T15:42:48;11.47;50.96
68609;SHT31;55581;46.718;7.690;2023-02-15T15:54:18;11.49;52.25
68609;SHT31;55581;46.718;7.690;2023-02-15T15:56:49;11.33;53.25
68609;SHT31;55581;46.718;7.690;2023-02-15T15:59:24;11.30;52.28
68609;SHT31;55581;46.718;7.690;2023-02-15T16:01:50;11.25;51.16
68609;SHT31;55581;46.718;7.690;2023-02-15T16:04:31;11.25;50.66
68609;SHT31;55581;46.718;7.690;2023-02-15T16:07:03;11.22;50.54
68609;SHT31;55581;46.718;7.690;2023-02-15T16:09:38;11.18;50.86
68609;SHT31;55581;46.718;7.690;2023-02-15T16:12:04;11.16;51.91
68609;SHT31;55581;46.718;7.690;2023-02-15T16:14:40;11.15;52.39
68609;SHT31;55581;46.718;7.690;2023-02-15T16:17:17;11.02;53.19
68609;SHT31;55581;46.718;7.690;2023-02-15T16:19:45;10.81;53.97
68609;SHT31;55581;46.718;7.690;2023-02-15T16:22:14;10.47;57.56
68609;SHT31;55581;46.718;7.690;2023-02-15T16:33:16;9.46;62.94
68609;SHT31;55581;46.718;7.690;2023-02-15T16:35:57;9.29;63.53
68609;SHT31;55581;46.718;7.690;2023-02-15T16:41:08;9.04;64.25
68609;SHT31;55581;46.718;7.690;2023-02-15T16:43:43;8.91;64.77
68609;SHT31;55581;46.718;7.690;2023-02-15T16:46:15;8.85;65.34
68609;SHT31;55581;46.718;7.690;2023-02-15T16:48:45;8.77;66.37
68609;SHT31;55581;46.718;7.690;2023-02-15T16:51:21;8.68;66.19
68609;SHT31;55581;46.718;7.690;2023-02-15T16:53:47;8.77;65.28
68609;SHT31;55581;46.718;7.690;2023-02-15T16:56:14;8.56;66.94
68609;SHT31;55581;46.718;7.690;2023-02-15T16:58:43;8.52;67.67
68609;SHT31;55581;46.718;7.690;2023-02-15T17:01:15;8.43;67.67
68609;SHT31;55581;46.718;7.690;2023-02-15T17:03:48;8.39;68.02
68609;SHT31;55581;46.718;7.690;2023-02-15T17:06:26;8.32;66.98
68609;SHT31;55581;46.718;7.690;2023-02-15T17:08:52;8.33;68.45
68609;SHT31;55581;46.718;7.690;2023-02-15T17:11:37;8.22;69.12
68609;SHT31;55581;46.718;7.690;2023-02-15T17:19:28;7.95;69.03
68609;SHT31;55581;46.718;7.690;2023-02-15T17:22:00;7.92;68.69
68609;SHT31;55581;46.718;7.690;2023-02-15T17:27:11;7.82;68.88
68609;SHT31;55581;46.718;7.690;2023-02-15T17:29:40;7.75;68.27
68609;SHT31;55581;46.718;7.690;2023-02-15T17:32:23;7.71;68.85
68609;SHT31;55581;46.718;7.690;2023-02-15T17:35:18;7.61;69.00
68609;SHT31;55581;46.718;7.690;2023-02-15T17:37:49;7.61;68.62
68609;SHT31;55581;46.718;7.690;2023-02-15T17:40:25;7.54;68.55
68609;SHT31;55581;46.718;7.690;2023-02-15T17:42:51;7.50;69.00
68609;SHT31;55581;46.718;7.690;2023-02-15T17:45:18;7.39;69.64
68609;SHT31;55581;46.718;7.690;2023-02-15T17:47:47;7.27;70.15
68609;SHT31;55581;46.718;7.690;2023-02-15T17:50:25;7.30;69.37
68609;SHT31;55581;46.718;7.690;2023-02-15T17:52:53;7.37;69.40
68609;SHT31;55581;46.718;7.690;2023-02-15T17:55:21;7.30;69.74
68609;SHT31;55581;46.718;7.690;2023-02-15T17:58:11;7.27;69.65
68609;SHT31;55581;46.718;7.690;2023-02-15T18:00:43;7.15;69.77
68609;SHT31;55581;46.718;7.690;2023-02-15T18:03:47;7.08;69.90
68609;SHT31;55581;46.718;7.690;2023-02-15T18:06:32;7.04;69.73
68609;SHT31;55581;46.718;7.690;2023-02-15T18:09:20;7.02;70.10
68609;SHT31;55581;46.718;7.690;2023-02-15T18:14:44;7.01;69.70
68609;SHT31;55581;46.718;7.690;2023-02-15T18:17:11;7.04;69.66
68609;SHT31;55581;46.718;7.690;2023-02-15T18:19:38;7.01;69.96
68609;SHT31;55581;46.718;7.690;2023-02-15T18:22:16;6.92;70.36
68609;SHT31;55581;46.718;7.690;2023-02-15T18:24:42;6.92;69.62
68609;SHT31;55581;46.718;7.690;2023-02-15T18:27:11;6.89;69.22
68609;SHT31;55581;46.718;7.690;2023-02-15T18:29:37;6.95;69.34
68609;SHT31;55581;46.718;7.690;2023-02-15T18:32:12;6.91;68.94
68609;SHT31;55581;46.718;7.690;2023-02-15T18:34:40;6.63;70.35
68609;SHT31;55581;46.718;7.690;2023-02-15T18:37:16;6.54;70.74
68609;SHT31;55581;46.718;7.690;2023-02-15T18:44:48;6.46;71.80
68609;SHT31;55581;46.718;7.690;2023-02-15T18:47:14;6.33;71.99
68609;SHT31;55581;46.718;7.690;2023-02-15T18:49:40;6.26;71.98
68609;SHT31;55581;46.718;7.690;2023-02-15T18:52:16;6.20;72.37
68609;SHT31;55581;46.718;7.690;2023-02-15T18:54:43;6.19;72.54
68609;SHT31;55581;46.718;7.690;2023-02-15T18:57:12;6.13;71.84
68609;SHT31;55581;46.718;7.690;2023-02-15T18:59:38;6.09;72.41
68609;SHT31;55581;46.718;7.690;2023-02-15T19:02:16;6.05;73.09
68609;SHT31;55581;46.718;7.690;2023-02-15T19:04:51;6.03;71.72
68609;SHT31;55581;46.718;7.690;2023-02-15T19:07:21;6.02;72.09
68609;SHT31;55581;46.718;7.690;2023-02-15T19:09:50;6.08;71.94
68609;SHT31;55581;46.718;7.690;2023-02-15T19:12:17;6.03;71.07
68609;SHT31;55581;46.718;7.690;2023-02-15T19:14:44;6.06;72.16
68609;SHT31;55581;46.718;7.690;2023-02-15T19:17:18;6.03;72.63
68609;SHT31;55581;46.718;7.690;2023-02-15T19:19:48;6.28;69.73
68609;SHT31;55581;46.718;7.690;2023-02-15T19:22:31;6.28;70.51
68609;SHT31;55581;46.718;7.690;2023-02-15T19:25:01;6.23;71.31
68609;SHT31;55581;46.718;7.690;2023-02-15T19:27:33;6.12;71.49
68609;SHT31;55581;46.718;7.690;2023-02-15T19:30:01;6.09;71.61
68609;SHT31;55581;46.718;7.690;2023-02-15T19:32:30;6.01;71.33
68609;SHT31;55581;46.718;7.690;2023-02-15T19:34:58;5.98;71.17
68609;SHT31;55581;46.718;7.690;2023-02-15T19:37:35;5.85;72.36
68609;SHT31;55581;46.718;7.690;2023-02-15T19:42:47;5.64;73.22
68609;SHT31;55581;46.718;7.690;2023-02-15T19:45:18;5.56;73.61
68609;SHT31;55581;46.718;7.690;2023-02-15T19:47:44;5.53;72.99
68609;SHT31;55581;46.718;7.690;2023-02-15T19:50:14;5.56;72.47
68609;SHT31;55581;46.718;7.690;2023-02-15T19:52:47;5.53;72.99
68609;SHT31;55581;46.718;7.690;2023-02-15T19:55:27;5.51;73.13
68609;SHT31;55581;46.718;7.690;2023-02-15T19:57:55;5.46;73.11
68609;SHT31;55581;46.718;7.690;2023-02-15T20:00:29;5.37;73.52
68609;SHT31;55581;46.718;7.690;2023-02-15T20:03:00;5.36;75.46
68609;SHT31;55581;46.718;7.690;2023-02-15T20:05:27;5.32;74.81
68609;SHT31;55581;46.718;7.690;2023-02-15T20:08:00;5.29;75.11
68609;SHT31;55581;46.718;7.690;2023-02-15T20:10:29;5.25;75.83
68609;SHT31;55581;46.718;7.690;2023-02-15T20:12:59;5.26;75.65
68609;SHT31;55581;46.718;7.690;2023-02-15T20:17:55;5.16;74.07
68609;SHT31;55581;46.718;7.690;2023-02-15T20:20:47;5.16;73.35
68609;SHT31;55581;46.718;7.690;2023-02-15T20:23:21;5.19;72.96
68609;SHT31;55581;46.718;7.690;2023-02-15T20:25:50;5.20;72.80
68609;SHT31;55581;46.718;7.690;2023-02-15T20:28:19;5.09;73.40